HIO weather

Altia Heliport
Villahermosa, Tabasco, Mexico

Public forecast

Using degrees Celsius for public forecast. Weather courtesy of forecast.io.

Closest aviation weather report (METAR) to Altia Heliport

Report is more than 2 hours old.

Closest report is Carlos Rovirosa Pérez International Airport, 8.4 nm (15.5 km) E. Retrieved 2020/01/23 02:43 UTC (5 hours ago):

MMVA 230243Z 08006KT 7SM SKC 20/18 A2999 RMK SLP153 52017 995

Closest aviation forecast (TAF) to Altia Heliport

Closest forecast is Carlos Rovirosa Pérez International Airport, 8.4 nm (15.5 km) E. Retrieved 2020/01/23 06:42 UTC (56 minutes ago):

TAF TAF MMVA 230539Z 2306/2406 06005KT P6SM SKC TEMPO 2311/2315 4SM HZ BKN015 FM231800 03012KT P6SM SCT015 BKN100 FM240500 05005KT P6SM SKC